createdAt,value
2023-03-06T00:07:00.407Z,-1.50
2023-03-06T00:09:28.337Z,-1.52
2023-03-06T00:11:56.338Z,-1.57
2023-03-06T00:14:24.243Z,-1.59
2023-03-06T00:16:58.730Z,-1.61
2023-03-06T00:19:27.629Z,-1.62
2023-03-06T00:21:55.509Z,-1.65
2023-03-06T00:24:23.498Z,-1.62
2023-03-06T00:26:51.497Z,-1.61
2023-03-06T00:29:19.413Z,-1.58
2023-03-06T00:31:48.122Z,-1.59
2023-03-06T00:34:16.235Z,-1.59
2023-03-06T00:36:44.325Z,-1.59
2023-03-06T00:39:12.247Z,-1.58
2023-03-06T00:41:40.261Z,-1.56
2023-03-06T00:44:08.440Z,-1.56
2023-03-06T00:46:37.024Z,-1.55
2023-03-06T00:49:04.964Z,-1.58
2023-03-06T00:51:33.126Z,-1.61
2023-03-06T00:54:01.550Z,-1.64
2023-03-06T00:56:30.247Z,-1.66
2023-03-06T01:03:44.795Z,-1.70
2023-03-06T01:06:12.769Z,-1.72
2023-03-06T01:08:40.713Z,-1.73
2023-03-06T01:11:08.817Z,-1.73
2023-03-06T01:13:36.858Z,-1.71
2023-03-06T01:16:08.074Z,-1.68
2023-03-06T01:18:37.205Z,-1.67
2023-03-06T01:21:05.667Z,-1.65
2023-03-06T01:23:33.662Z,-1.64
2023-03-06T01:26:02.282Z,-1.65
2023-03-06T01:28:31.802Z,-1.63
2023-03-06T01:31:04.976Z,-1.61
2023-03-06T01:33:33.668Z,-1.65
2023-03-06T01:36:11.723Z,-1.67
2023-03-06T01:38:40.617Z,-1.71
2023-03-06T01:41:10.961Z,-1.73
2023-03-06T01:43:41.780Z,-1.72
2023-03-06T01:46:30.866Z,-1.68
2023-03-06T01:50:16.095Z,-1.62
2023-03-06T01:52:50.512Z,-1.64
2023-03-06T01:59:28.995Z,-1.68
2023-03-06T02:02:01.881Z,-1.63
2023-03-06T02:04:30.322Z,-1.58
2023-03-06T02:07:06.081Z,-1.56
2023-03-06T02:09:37.732Z,-1.56
2023-03-06T02:12:13.575Z,-1.59
2023-03-06T02:14:42.800Z,-1.60
2023-03-06T02:17:14.328Z,-1.57
2023-03-06T02:19:54.114Z,-1.55
2023-03-06T02:22:25.555Z,-1.58
2023-03-06T02:25:05.179Z,-1.63
2023-03-06T02:27:34.945Z,-1.62
2023-03-06T02:30:08.041Z,-1.61
2023-03-06T02:32:36.322Z,-1.56
2023-03-06T02:35:04.882Z,-1.50
2023-03-06T02:37:33.096Z,-1.47
2023-03-06T02:40:29.648Z,-1.48
2023-03-06T02:42:58.909Z,-1.49
2023-03-06T02:45:38.761Z,-1.50
2023-03-06T02:48:07.812Z,-1.48
2023-03-06T02:50:35.837Z,-1.46
2023-03-06T02:53:04.380Z,-1.42
2023-03-06T02:55:33.183Z,-1.39
2023-03-06T02:58:02.546Z,-1.41
2023-03-06T03:00:32.131Z,-1.41
2023-03-06T03:03:29.170Z,-1.36
2023-03-06T03:06:00.269Z,-1.30
2023-03-06T03:08:32.406Z,-1.24
2023-03-06T03:11:06.427Z,-1.20
2023-03-06T03:13:39.670Z,-1.21
2023-03-06T03:16:14.281Z,-1.23
2023-03-06T03:18:48.271Z,-1.26
2023-03-06T03:21:18.779Z,-1.28
2023-03-06T03:23:48.704Z,-1.26
2023-03-06T03:26:19.540Z,-1.24
2023-03-06T03:28:53.000Z,-1.19
2023-03-06T03:31:48.659Z,-1.17
2023-03-06T03:34:17.176Z,-1.21
2023-03-06T03:36:45.950Z,-1.27
2023-03-06T03:39:14.232Z,-1.27
2023-03-06T03:41:42.755Z,-1.27
2023-03-06T03:44:11.184Z,-1.22
2023-03-06T03:46:39.712Z,-1.18
2023-03-06T03:49:11.765Z,-1.19
2023-03-06T03:51:39.871Z,-1.22
2023-03-06T03:58:53.257Z,-1.25
2023-03-06T04:01:22.367Z,-1.24
2023-03-06T04:03:51.196Z,-1.24
2023-03-06T04:06:19.995Z,-1.24
2023-03-06T04:08:48.398Z,-1.26
2023-03-06T04:11:17.258Z,-1.24
2023-03-06T04:13:45.382Z,-1.23
2023-03-06T04:21:05.963Z,-1.15
2023-03-06T04:23:34.639Z,-1.18
2023-03-06T04:26:03.840Z,-1.22
2023-03-06T04:28:31.999Z,-1.24
2023-03-06T04:31:00.733Z,-1.28
2023-03-06T04:38:15.053Z,-1.26
2023-03-06T04:40:44.890Z,-1.28
2023-03-06T04:43:13.276Z,-1.31
2023-03-06T04:45:41.522Z,-1.32
2023-03-06T04:48:14.350Z,-1.32
2023-03-06T04:55:29.729Z,-1.31
2023-03-06T04:57:59.125Z,-1.37
2023-03-06T05:00:34.483Z,-1.38
2023-03-06T05:03:02.758Z,-1.38
2023-03-06T05:05:30.927Z,-1.41
2023-03-06T05:07:59.160Z,-1.43
2023-03-06T05:10:27.153Z,-1.45
2023-03-06T05:12:55.049Z,-1.45
2023-03-06T05:15:23.680Z,-1.44
2023-03-06T05:22:02.202Z,-1.31
2023-03-06T05:24:30.986Z,-1.30
2023-03-06T05:26:59.312Z,-1.29
2023-03-06T05:29:47.006Z,-1.25
2023-03-06T05:32:17.142Z,-1.24
2023-03-06T05:34:48.443Z,-1.22
2023-03-06T05:37:16.403Z,-1.19
2023-03-06T05:39:44.428Z,-1.14
2023-03-06T05:42:12.390Z,-1.08
2023-03-06T05:44:42.008Z,-1.03
2023-03-06T05:47:11.420Z,-1.03
2023-03-06T05:49:40.286Z,-1.05
2023-03-06T05:52:08.799Z,-1.09
2023-03-06T05:54:37.477Z,-1.10
2023-03-06T05:57:06.259Z,-1.12
2023-03-06T05:59:34.510Z,-1.06
2023-03-06T06:02:04.080Z,-0.97
2023-03-06T06:04:32.428Z,-0.90
2023-03-06T06:07:01.853Z,-0.87
2023-03-06T06:09:30.551Z,-0.81
2023-03-06T06:12:01.830Z,-0.75
2023-03-06T06:14:33.806Z,-0.65
2023-03-06T06:17:07.784Z,-0.55
2023-03-06T06:19:36.032Z,-0.47
2023-03-06T06:22:04.926Z,-0.36
2023-03-06T06:24:33.162Z,-0.28
2023-03-06T06:27:03.725Z,-0.20
2023-03-06T06:29:32.678Z,-0.12
2023-03-06T06:32:01.755Z,-0.02
2023-03-06T06:34:30.754Z,0.05
2023-03-06T06:37:00.366Z,0.09
2023-03-06T06:39:30.819Z,0.17
2023-03-06T06:42:15.444Z,0.22
2023-03-06T06:44:51.660Z,0.30
2023-03-06T06:47:24.110Z,0.40
2023-03-06T06:49:56.838Z,0.49
2023-03-06T06:52:29.213Z,0.55
2023-03-06T06:54:58.146Z,0.60
2023-03-06T06:57:26.661Z,0.60
2023-03-06T06:59:54.858Z,0.52
2023-03-06T07:02:23.480Z,0.47
2023-03-06T07:05:43.416Z,0.46
2023-03-06T07:08:11.644Z,0.48
2023-03-06T07:10:40.178Z,0.48
2023-03-06T07:13:09.114Z,0.41
2023-03-06T07:15:38.502Z,0.37
2023-03-06T07:18:06.731Z,0.35
2023-03-06T07:20:34.972Z,0.30
2023-03-06T07:23:03.278Z,0.29
2023-03-06T07:25:33.481Z,0.33
2023-03-06T07:28:01.724Z,0.32
2023-03-06T07:30:30.349Z,0.33
2023-03-06T07:33:26.976Z,0.34
2023-03-06T07:35:55.157Z,0.32
2023-03-06T07:38:23.342Z,0.33
2023-03-06T07:40:57.461Z,0.37
2023-03-06T07:43:26.254Z,0.41
2023-03-06T07:46:01.214Z,0.44
2023-03-06T07:48:29.472Z,0.47
2023-03-06T07:50:58.051Z,0.53
2023-03-06T07:53:26.861Z,0.55
2023-03-06T07:55:55.986Z,0.60
2023-03-06T07:58:24.906Z,0.67
2023-03-06T08:00:54.125Z,0.73
2023-03-06T08:03:23.427Z,0.83
2023-03-06T08:05:51.543Z,0.94
2023-03-06T08:08:19.741Z,1.03
2023-03-06T08:10:49.493Z,1.11
2023-03-06T08:17:29.432Z,1.21
2023-03-06T08:19:58.325Z,1.31
2023-03-06T08:22:27.262Z,1.47
2023-03-06T08:24:56.470Z,1.54
2023-03-06T08:27:24.643Z,1.58
2023-03-06T08:29:54.034Z,1.67
2023-03-06T08:32:22.763Z,1.69
2023-03-06T08:34:51.801Z,1.67
2023-03-06T08:37:19.987Z,1.62
2023-03-06T08:39:48.311Z,1.73
2023-03-06T08:42:16.842Z,1.81
2023-03-06T08:44:45.576Z,1.92
2023-03-06T08:47:13.975Z,2.04
2023-03-06T08:49:42.104Z,2.15
2023-03-06T08:52:11.231Z,2.25
2023-03-06T08:54:39.834Z,2.37
2023-03-06T08:57:09.350Z,2.37
2023-03-06T08:59:38.218Z,2.30
2023-03-06T09:02:07.831Z,2.27
2023-03-06T09:04:36.435Z,2.37
2023-03-06T09:07:04.797Z,2.46
2023-03-06T09:09:33.784Z,2.57
2023-03-06T09:12:02.656Z,2.60
2023-03-06T09:14:31.582Z,2.70
2023-03-06T09:16:59.880Z,2.81
2023-03-06T09:19:28.660Z,2.89
2023-03-06T09:22:01.190Z,2.89
2023-03-06T09:24:30.017Z,2.89
2023-03-06T09:26:58.775Z,2.89
2023-03-06T09:29:26.903Z,2.85
2023-03-06T09:31:55.486Z,2.90
2023-03-06T09:34:23.776Z,2.92
2023-03-06T09:36:57.103Z,2.93
2023-03-06T09:39:27.347Z,3.03
2023-03-06T09:41:57.826Z,3.14
2023-03-06T09:44:31.144Z,3.29
2023-03-06T09:47:21.163Z,3.46
2023-03-06T09:49:55.676Z,3.60
2023-03-06T09:52:29.616Z,3.55
2023-03-06T09:55:09.326Z,3.52
2023-03-06T09:57:42.710Z,3.64
2023-03-06T10:00:35.937Z,3.70
2023-03-06T10:04:23.180Z,3.83
2023-03-06T10:06:53.642Z,3.84
2023-03-06T10:09:43.766Z,3.80
2023-03-06T10:12:26.157Z,3.81
2023-03-06T10:15:13.450Z,3.94
2023-03-06T10:17:43.553Z,4.03
2023-03-06T10:20:24.040Z,4.09
2023-03-06T10:23:05.149Z,4.17
2023-03-06T10:25:50.160Z,4.27
2023-03-06T10:28:29.659Z,4.39
2023-03-06T10:31:20.043Z,4.43
2023-03-06T10:38:31.964Z,4.48
2023-03-06T10:41:13.122Z,4.55
2023-03-06T10:43:43.946Z,4.60
2023-03-06T10:46:51.294Z,4.64
2023-03-06T10:49:35.103Z,4.71
2023-03-06T10:54:49.390Z,4.71
2023-03-06T11:02:37.496Z,4.88
2023-03-06T11:05:19.052Z,4.99
2023-03-06T11:08:25.342Z,5.15
2023-03-06T11:11:03.042Z,5.11
2023-03-06T11:13:41.181Z,5.02
2023-03-06T11:16:32.831Z,4.98
2023-03-06T11:19:10.507Z,5.03
2023-03-06T11:21:40.564Z,5.14
2023-03-06T11:24:21.860Z,5.21
2023-03-06T11:27:09.258Z,5.15
2023-03-06T11:29:43.549Z,5.11
2023-03-06T11:32:21.161Z,5.23
2023-03-06T11:35:06.082Z,5.23
2023-03-06T11:37:46.618Z,5.20
2023-03-06T11:40:24.920Z,5.19
2023-03-06T11:48:03.951Z,5.03
2023-03-06T11:50:39.926Z,5.18
2023-03-06T11:53:15.963Z,5.30
2023-03-06T11:56:01.305Z,5.33
2023-03-06T11:58:35.297Z,5.30
2023-03-06T12:01:13.995Z,5.32
2023-03-06T12:08:19.906Z,5.12
2023-03-06T12:10:57.798Z,5.05
2023-03-06T12:13:56.786Z,4.99
2023-03-06T12:17:05.903Z,4.92
2023-03-06T12:19:46.664Z,4.81
2023-03-06T12:22:33.532Z,4.71
2023-03-06T12:25:31.159Z,4.65
2023-03-06T12:32:35.373Z,4.72
2023-03-06T12:35:13.408Z,4.77
2023-03-06T12:37:41.673Z,4.76
2023-03-06T12:40:40.365Z,4.73
2023-03-06T12:43:20.983Z,4.66
2023-03-06T12:46:28.580Z,4.59
2023-03-06T12:49:32.557Z,4.49
2023-03-06T12:52:04.697Z,4.45
2023-03-06T12:54:37.858Z,4.42
2023-03-06T12:57:08.736Z,4.37
2023-03-06T12:59:38.102Z,4.36
2023-03-06T13:02:37.743Z,4.36
2023-03-06T13:05:18.783Z,4.34
2023-03-06T13:08:18.503Z,4.35
2023-03-06T13:11:06.814Z,4.32
2023-03-06T13:13:44.004Z,4.31
2023-03-06T13:16:32.361Z,4.27
2023-03-06T13:19:00.693Z,4.18
2023-03-06T13:21:50.264Z,4.11
2023-03-06T13:24:27.861Z,4.03
2023-03-06T13:27:10.510Z,3.93
2023-03-06T13:29:38.731Z,3.80
2023-03-06T13:32:29.374Z,3.64
2023-03-06T13:34:57.620Z,3.46
2023-03-06T13:37:25.587Z,3.38
2023-03-06T13:39:59.841Z,3.28
2023-03-06T13:42:28.537Z,3.25
2023-03-06T13:45:15.443Z,3.17
2023-03-06T13:52:42.779Z,2.84
2023-03-06T13:55:31.739Z,2.82
2023-03-06T13:58:18.043Z,2.87
2023-03-06T14:01:21.401Z,2.95
2023-03-06T14:04:11.137Z,3.04
2023-03-06T14:06:40.777Z,3.06
2023-03-06T14:09:45.832Z,3.05
2023-03-06T14:12:26.660Z,3.05
2023-03-06T14:14:58.561Z,3.18
2023-03-06T14:17:33.404Z,3.40
2023-03-06T14:20:13.448Z,3.63
2023-03-06T14:26:54.547Z,4.12
2023-03-06T14:29:26.376Z,4.06
2023-03-06T14:31:57.985Z,4.18
2023-03-06T14:35:06.696Z,4.23
2023-03-06T14:37:37.592Z,4.20
2023-03-06T14:40:11.451Z,4.15
2023-03-06T14:42:39.928Z,4.14
2023-03-06T14:45:17.160Z,4.26
2023-03-06T14:47:53.989Z,4.50
2023-03-06T14:50:27.819Z,4.52
2023-03-06T14:53:01.082Z,4.42
2023-03-06T14:55:33.457Z,4.31
2023-03-06T14:58:04.289Z,4.21
2023-03-06T15:00:42.266Z,4.08
2023-03-06T15:03:20.903Z,3.97
2023-03-06T15:05:51.180Z,3.89
2023-03-06T15:13:26.465Z,3.65
2023-03-06T15:16:22.376Z,3.54
2023-03-06T15:19:20.069Z,3.42
2023-03-06T15:21:51.950Z,3.31
2023-03-06T15:24:38.360Z,3.15
2023-03-06T15:27:16.590Z,2.96
2023-03-06T15:29:44.647Z,2.83
2023-03-06T15:32:15.794Z,2.75
2023-03-06T15:34:43.808Z,2.68
2023-03-06T15:37:28.962Z,2.61
2023-03-06T15:40:09.555Z,2.57
2023-03-06T15:42:37.853Z,2.55
2023-03-06T15:45:35.093Z,2.54
2023-03-06T15:48:17.223Z,2.56
2023-03-06T15:50:45.377Z,2.57
2023-03-06T15:53:13.373Z,2.57
2023-03-06T15:55:41.361Z,2.57
2023-03-06T15:58:15.276Z,2.57
2023-03-06T16:00:44.134Z,2.58
2023-03-06T16:03:13.625Z,2.57
2023-03-06T16:05:41.793Z,2.54
2023-03-06T16:08:15.301Z,2.53
2023-03-06T16:10:46.914Z,2.51
2023-03-06T16:14:06.475Z,2.46
2023-03-06T16:16:37.721Z,2.28
2023-03-06T16:19:26.715Z,2.13
2023-03-06T16:22:00.258Z,1.90
2023-03-06T16:24:29.340Z,1.58
2023-03-06T16:27:01.687Z,1.32
2023-03-06T16:29:30.642Z,1.16
2023-03-06T16:32:00.912Z,1.05
2023-03-06T16:35:08.291Z,0.97
2023-03-06T16:37:36.774Z,0.92
2023-03-06T16:40:07.986Z,0.87
2023-03-06T16:42:39.548Z,0.86
2023-03-06T16:45:08.438Z,0.87
2023-03-06T16:47:45.541Z,0.89
2023-03-06T16:50:25.962Z,0.95
2023-03-06T16:52:56.497Z,0.95
2023-03-06T16:55:27.040Z,0.93
2023-03-06T17:02:41.572Z,0.93
2023-03-06T17:05:12.113Z,0.95
2023-03-06T17:07:41.236Z,0.97
2023-03-06T17:14:20.245Z,0.89
2023-03-06T17:16:48.240Z,0.91
2023-03-06T17:19:16.376Z,0.94
2023-03-06T17:21:44.410Z,0.93
2023-03-06T17:24:12.366Z,0.89
2023-03-06T17:26:40.363Z,0.86
2023-03-06T17:29:09.706Z,0.83
2023-03-06T17:31:38.103Z,0.84
2023-03-06T17:34:06.468Z,0.86
2023-03-06T17:36:34.839Z,0.86
2023-03-06T17:39:04.134Z,0.84
2023-03-06T17:41:34.222Z,0.84
2023-03-06T17:44:02.284Z,0.84
2023-03-06T17:46:32.270Z,0.86
2023-03-06T17:49:00.609Z,0.90
2023-03-06T17:51:28.790Z,0.92
2023-03-06T17:53:57.641Z,0.91
2023-03-06T17:56:26.733Z,0.87
2023-03-06T17:58:55.552Z,0.85
2023-03-06T18:01:27.591Z,0.87
2023-03-06T18:03:56.925Z,0.89
2023-03-06T18:06:27.742Z,0.86
2023-03-06T18:08:56.359Z,0.80
2023-03-06T18:11:24.773Z,0.79
2023-03-06T18:13:53.008Z,0.80
2023-03-06T18:16:23.307Z,0.81
2023-03-06T18:18:53.518Z,0.81
2023-03-06T18:21:23.331Z,0.79
2023-03-06T18:23:51.473Z,0.76
2023-03-06T18:26:25.657Z,0.76
2023-03-06T18:28:56.428Z,0.75
2023-03-06T18:31:28.341Z,0.76
2023-03-06T18:33:59.266Z,0.78
2023-03-06T18:36:31.331Z,0.76
2023-03-06T18:39:01.062Z,0.75
2023-03-06T18:41:30.444Z,0.74
2023-03-06T18:44:00.793Z,0.77
2023-03-06T18:46:38.286Z,0.77
2023-03-06T18:49:07.765Z,0.75
2023-03-06T18:51:35.682Z,0.72
2023-03-06T18:54:05.328Z,0.70
2023-03-06T18:56:34.191Z,0.75
2023-03-06T18:59:05.580Z,0.74
2023-03-06T19:01:34.341Z,0.73
2023-03-06T19:04:04.613Z,0.73
2023-03-06T19:06:32.975Z,0.73
2023-03-06T19:09:02.445Z,0.76
2023-03-06T19:11:32.587Z,0.73
2023-03-06T19:14:00.692Z,0.74
2023-03-06T19:16:31.688Z,0.72
2023-03-06T19:18:59.685Z,0.71
2023-03-06T19:21:28.354Z,0.75
2023-03-06T19:23:57.434Z,0.78
2023-03-06T19:26:25.531Z,0.80
2023-03-06T19:28:53.761Z,0.77
2023-03-06T19:31:25.196Z,0.76
2023-03-06T19:33:54.921Z,0.78
2023-03-06T19:36:27.854Z,0.79
2023-03-06T19:38:57.340Z,0.79
2023-03-06T19:41:26.652Z,0.76
2023-03-06T19:43:58.435Z,0.75
2023-03-06T19:46:27.711Z,0.76
2023-03-06T19:48:58.055Z,0.77
2023-03-06T19:51:27.267Z,0.79
2023-03-06T19:53:56.418Z,0.76
2023-03-06T19:56:29.418Z,0.76
2023-03-06T19:58:57.899Z,0.79
2023-03-06T20:01:27.526Z,0.81
2023-03-06T20:03:59.455Z,0.81
2023-03-06T20:06:30.301Z,0.80
2023-03-06T20:08:58.789Z,0.80
2023-03-06T20:11:30.247Z,0.83
2023-03-06T20:14:00.765Z,0.89
2023-03-06T20:16:32.373Z,0.93
2023-03-06T20:19:02.603Z,0.96
2023-03-06T20:21:38.289Z,0.95
2023-03-06T20:24:08.676Z,0.96
2023-03-06T20:26:38.809Z,0.99
2023-03-06T20:29:06.943Z,1.03
2023-03-06T20:31:35.334Z,1.08
2023-03-06T20:34:05.056Z,1.12
2023-03-06T20:36:41.351Z,1.12
2023-03-06T20:39:13.380Z,1.11
2023-03-06T20:41:41.363Z,1.09
2023-03-06T20:44:17.434Z,1.08
2023-03-06T20:46:46.381Z,1.09
2023-03-06T20:49:14.884Z,1.09
2023-03-06T20:51:42.932Z,1.10
2023-03-06T20:54:13.526Z,1.08
2023-03-06T20:56:43.377Z,1.05
2023-03-06T20:59:14.197Z,1.02
2023-03-06T21:01:44.358Z,1.00
2023-03-06T21:04:14.538Z,1.02
2023-03-06T21:06:46.910Z,1.02
2023-03-06T21:09:18.989Z,0.99
2023-03-06T21:11:50.777Z,0.98
2023-03-06T21:14:28.776Z,0.95
2023-03-06T21:16:57.272Z,0.96
2023-03-06T21:19:28.723Z,0.99
2023-03-06T21:22:01.750Z,1.00
2023-03-06T21:24:39.698Z,1.00
2023-03-06T21:27:07.614Z,0.97
2023-03-06T21:29:35.560Z,0.95
2023-03-06T21:32:03.739Z,0.92
2023-03-06T21:34:31.763Z,0.93
2023-03-06T21:36:59.664Z,0.95
2023-03-06T21:39:27.706Z,0.92
2023-03-06T21:41:56.532Z,0.88
2023-03-06T21:44:25.237Z,0.86
2023-03-06T21:46:56.553Z,0.86
2023-03-06T21:49:26.635Z,0.87
2023-03-06T21:51:55.012Z,0.84
2023-03-06T21:54:23.296Z,0.81
2023-03-06T21:56:51.348Z,0.75
2023-03-06T21:59:20.796Z,0.73
2023-03-06T22:01:49.144Z,0.73
2023-03-06T22:04:17.814Z,0.73
2023-03-06T22:06:46.219Z,0.71
2023-03-06T22:09:17.116Z,0.66
2023-03-06T22:11:45.690Z,0.62
2023-03-06T22:14:14.959Z,0.60
2023-03-06T22:16:42.979Z,0.57
2023-03-06T22:19:10.880Z,0.57
2023-03-06T22:21:38.748Z,0.57
2023-03-06T22:24:06.945Z,0.54
2023-03-06T22:26:34.931Z,0.51
2023-03-06T22:29:02.804Z,0.47
2023-03-06T22:31:30.860Z,0.43
2023-03-06T22:34:00.512Z,0.41
2023-03-06T22:36:30.855Z,0.40
2023-03-06T22:39:01.278Z,0.35
2023-03-06T22:41:30.183Z,0.31
2023-03-06T22:44:01.164Z,0.24
2023-03-06T22:46:30.300Z,0.21
2023-03-06T22:49:00.047Z,0.19
2023-03-06T22:51:28.822Z,0.19
2023-03-06T22:53:56.869Z,0.18
2023-03-06T22:56:25.299Z,0.15
2023-03-06T22:58:53.412Z,0.13
2023-03-06T23:01:25.403Z,0.10
2023-03-06T23:03:56.483Z,0.07
2023-03-06T23:06:28.638Z,0.08
2023-03-06T23:09:06.007Z,0.10
2023-03-06T23:11:53.044Z,0.10
2023-03-06T23:14:40.004Z,0.08
2023-03-06T23:17:26.924Z,0.03
2023-03-06T23:20:14.217Z,-0.01
2023-03-06T23:23:00.475Z,-0.06
2023-03-06T23:25:44.177Z,-0.11
2023-03-06T23:28:12.384Z,-0.15
2023-03-06T23:30:41.731Z,-0.16
2023-03-06T23:33:10.584Z,-0.16
2023-03-06T23:35:41.511Z,-0.17
2023-03-06T23:38:09.425Z,-0.16
2023-03-06T23:40:40.523Z,-0.17
2023-03-06T23:43:08.498Z,-0.21
2023-03-06T23:45:37.164Z,-0.23
2023-03-06T23:48:08.058Z,-0.26
2023-03-06T23:50:39.800Z,-0.26
2023-03-06T23:53:07.693Z,-0.24
2023-03-06T23:55:35.564Z,-0.19
2023-03-06T23:58:03.576Z,-0.18
